TimePDT,TemperatureF,Dew PointF,Humidity,Sea Level PressureIn,VisibilityMPH,Wind Direction,Wind SpeedMPH,Gust SpeedMPH,PrecipitationIn,Events,Conditions,WindDirDegrees,DateUTC
12:51 AM,55.4,50.0,82,29.95,10.0,North,4.6,-,N/A,,Scattered Clouds,360,2013-06-11 07:51:00
12:54 AM,55.0,50.0,83,29.93,10.0,North,4.6,-,N/A,,Scattered Clouds,360,2013-06-11 07:54:00
1:54 AM,54.0,51.1,90,29.92,10.0,North,5.8,-,N/A,,Scattered Clouds,350,2013-06-11 08:54:00
2:12 AM,53.6,51.8,94,29.94,10.0,North,3.5,-,N/A,,Mostly Cloudy,350,2013-06-11 09:12:00
2:54 AM,55.0,51.1,86,29.92,10.0,North,3.5,-,N/A,,Overcast,350,2013-06-11 09:54:00
3:43 AM,53.6,50.0,88,29.94,10.0,Calm,Calm,-,N/A,,Scattered Clouds,0,2013-06-11 10:43:00
3:54 AM,55.0,51.1,86,29.91,10.0,Calm,Calm,-,N/A,,Mostly Cloudy,0,2013-06-11 10:54:00
4:22 AM,51.8,48.2,88,29.93,10.0,Calm,Calm,-,N/A,,Scattered Clouds,0,2013-06-11 11:22:00
4:54 AM,52.0,50.0,93,29.92,10.0,North,3.5,-,N/A,,Clear,350,2013-06-11 11:54:00
5:54 AM,52.0,48.9,89,29.93,10.0,Calm,Calm,-,N/A,,Clear,0,2013-06-11 12:54:00
6:54 AM,55.0,51.1,86,29.93,10.0,Calm,Calm,-,N/A,,Clear,0,2013-06-11 13:54:00
7:54 AM,59.0,51.1,75,29.94,10.0,WNW,4.6,-,N/A,,Mostly Cloudy,300,2013-06-11 14:54:00
8:54 AM,62.1,51.1,67,29.96,10.0,West,8.1,-,N/A,,Overcast,280,2013-06-11 15:54:00
9:54 AM,64.0,51.1,63,29.96,10.0,West,8.1,-,N/A,,Mostly Cloudy,270,2013-06-11 16:54:00
10:36 AM,66.2,51.8,60,29.98,10.0,WSW,8.1,-,N/A,,Scattered Clouds,240,2013-06-11 17:36:00
10:54 AM,66.0,52.0,60,29.96,10.0,SSW,8.1,-,N/A,,Clear,200,2013-06-11 17:54:00
11:54 AM,69.1,53.1,57,29.96,10.0,SSW,9.2,-,N/A,,Clear,210,2013-06-11 18:54:00
12:54 PM,71.1,54.0,55,29.94,10.0,SSW,11.5,-,N/A,,Clear,200,2013-06-11 19:54:00
1:54 PM,73.0,54.0,51,29.92,10.0,SSW,11.5,-,N/A,,Clear,200,2013-06-11 20:54:00
2:54 PM,75.0,54.0,48,29.91,10.0,SSW,12.7,-,N/A,,Clear,200,2013-06-11 21:54:00
3:54 PM,75.0,55.0,50,29.89,10.0,SSW,11.5,-,N/A,,Clear,200,2013-06-11 22:54:00
4:54 PM,75.0,55.9,51,29.88,10.0,SSW,16.1,-,N/A,,Clear,210,2013-06-11 23:54:00
5:54 PM,71.1,55.9,59,29.88,10.0,SSW,13.8,-,N/A,,Clear,200,2013-06-12 00:54:00
6:54 PM,71.1,55.9,59,29.86,10.0,SSW,13.8,-,N/A,,Clear,200,2013-06-12 01:54:00
7:54 PM,71.1,46.9,42,29.86,10.0,SW,10.4,-,N/A,,Clear,230,2013-06-12 02:54:00
8:54 PM,64.9,54.0,68,29.85,10.0,SSW,12.7,-,N/A,,Clear,210,2013-06-12 03:54:00
9:54 PM,64.0,53.1,67,29.87,10.0,SSW,11.5,-,N/A,,Clear,200,2013-06-12 04:54:00
10:54 PM,62.1,54.0,75,29.88,10.0,SW,11.5,-,N/A,,Clear,220,2013-06-12 05:54:00
11:54 PM,59.0,53.1,81,29.88,10.0,SSW,8.1,-,N/A,,Clear,210,2013-06-12 06:54:00